createdAt,value
2023-01-01T00:00:01.758Z,-64
2023-01-01T00:05:03.033Z,-63
2023-01-01T00:10:22.832Z,-63
2023-01-01T00:15:24.067Z,-63
2023-01-01T00:20:28.804Z,-63
2023-01-01T00:25:34.523Z,-63
2023-01-01T00:30:35.667Z,-63
2023-01-01T00:35:36.847Z,-63
2023-01-01T00:40:38.085Z,-63
2023-01-01T00:45:39.374Z,-63
2023-01-01T00:50:40.602Z,-63
2023-01-01T00:55:41.751Z,-63
2023-01-01T01:00:42.902Z,-64
2023-01-01T01:05:44.060Z,-63
2023-01-01T01:10:45.250Z,-63
2023-01-01T01:15:49.229Z,-63
2023-01-01T01:20:54.313Z,-63
2023-01-01T01:25:55.514Z,-63
2023-01-01T01:30:56.724Z,-63
2023-01-01T01:35:57.981Z,-64
2023-01-01T01:40:59.212Z,-64
2023-01-01T01:46:00.471Z,-63
2023-01-01T01:51:01.663Z,-63
2023-01-01T01:56:02.841Z,-64
2023-01-01T02:01:04.166Z,-63
2023-01-01T02:06:05.537Z,-63
2023-01-01T02:11:06.681Z,-63
2023-01-01T02:16:07.845Z,-63
2023-01-01T02:21:09.102Z,-63
2023-01-01T02:26:10.291Z,-63
2023-01-01T02:31:11.579Z,-63
2023-01-01T02:36:12.738Z,-63
2023-01-01T02:41:13.887Z,-63
2023-01-01T02:51:15.142Z,-63
2023-01-01T02:56:16.365Z,-63
2023-01-01T03:01:17.602Z,-63
2023-01-01T03:06:24.792Z,-63
2023-01-01T03:11:26.019Z,-63
2023-01-01T03:16:27.198Z,-64
2023-01-01T03:21:28.365Z,-63
2023-01-01T03:26:31.720Z,-63
2023-01-01T03:31:33.052Z,-63
2023-01-01T03:36:35.329Z,-63
2023-01-01T03:41:36.611Z,-63
2023-01-01T03:46:37.846Z,-64
2023-01-01T03:51:39.101Z,-63
2023-01-01T03:56:40.279Z,-63
2023-01-01T04:01:41.585Z,-63
2023-01-01T04:06:42.821Z,-63
2023-01-01T04:12:04.095Z,-64
2023-01-01T04:17:05.326Z,-63
2023-01-01T04:22:06.494Z,-63
2023-01-01T04:27:07.638Z,-63
2023-01-01T04:32:08.799Z,-64
2023-01-01T04:37:13.457Z,-63
2023-01-01T04:42:15.040Z,-63
2023-01-01T04:47:16.225Z,-63
2023-01-01T04:52:17.423Z,-63
2023-01-01T04:57:18.558Z,-63
2023-01-01T05:02:19.898Z,-63
2023-01-01T05:07:21.252Z,-63
2023-01-01T05:12:22.405Z,-63
2023-01-01T05:17:23.616Z,-63
2023-01-01T05:22:24.877Z,-63
2023-01-01T05:27:26.070Z,-63
2023-01-01T05:32:28.331Z,-64
2023-01-01T05:37:29.529Z,-63
2023-01-01T05:42:30.682Z,-64
2023-01-01T05:47:31.892Z,-63
2023-01-01T05:52:33.065Z,-63
2023-01-01T05:57:34.237Z,-64
2023-01-01T06:02:35.392Z,-63
2023-01-01T06:07:36.613Z,-63
2023-01-01T06:12:37.831Z,-63
2023-01-01T06:17:39.018Z,-63
2023-01-01T06:22:40.229Z,-63
2023-01-01T06:27:41.520Z,-63
2023-01-01T06:32:42.976Z,-63
2023-01-01T06:37:44.131Z,-63
2023-01-01T06:42:45.331Z,-63
2023-01-01T06:47:46.513Z,-63
2023-01-01T06:52:47.750Z,-63
2023-01-01T06:57:48.893Z,-64
2023-01-01T07:02:50.336Z,-64
2023-01-01T07:07:51.598Z,-63
2023-01-01T07:12:52.841Z,-64
2023-01-01T07:17:54.093Z,-65
2023-01-01T07:22:55.270Z,-64
2023-01-01T07:27:56.475Z,-63
2023-01-01T07:32:57.604Z,-63
2023-01-01T07:37:58.744Z,-65
2023-01-01T07:42:59.977Z,-63
2023-01-01T07:48:01.148Z,-63
2023-01-01T07:53:02.376Z,-64
2023-01-01T07:58:03.519Z,-65
2023-01-01T08:03:05.565Z,-64
2023-01-01T08:08:06.803Z,-64
2023-01-01T08:13:07.988Z,-65
2023-01-01T08:18:09.196Z,-64
2023-01-01T08:23:10.454Z,-66
2023-01-01T08:28:11.649Z,-65
2023-01-01T08:33:12.860Z,-64
2023-01-01T08:38:14.145Z,-64
2023-01-01T08:43:15.390Z,-65
2023-01-01T08:48:16.560Z,-64
2023-01-01T08:53:17.773Z,-65
2023-01-01T08:58:18.929Z,-64
2023-01-01T09:03:20.242Z,-63
2023-01-01T09:08:21.561Z,-63
2023-01-01T09:13:22.706Z,-64
2023-01-01T09:18:23.913Z,-64
2023-01-01T09:23:25.158Z,-63
2023-01-01T09:28:29.486Z,-63
2023-01-01T09:33:30.752Z,-64
2023-01-01T09:38:33.211Z,-63
2023-01-01T09:43:34.408Z,-64
2023-01-01T09:48:35.605Z,-64
2023-01-01T09:53:36.849Z,-64
2023-01-01T09:58:38.076Z,-68
2023-01-01T10:03:39.363Z,-67
2023-01-01T10:08:40.665Z,-67
2023-01-01T10:13:42.043Z,-67
2023-01-01T10:18:43.404Z,-67
2023-01-01T10:23:44.721Z,-67
2023-01-01T10:28:45.922Z,-67
2023-01-01T10:33:47.592Z,-67
2023-01-01T10:38:48.825Z,-67
2023-01-01T10:43:50.100Z,-66
2023-01-01T10:48:51.251Z,-67
2023-01-01T10:53:52.908Z,-67
2023-01-01T10:58:58.472Z,-67
2023-01-01T11:03:59.753Z,-67
2023-01-01T11:09:03.385Z,-67
2023-01-01T11:14:06.048Z,-67
2023-01-01T11:19:07.324Z,-67
2023-01-01T11:24:08.473Z,-66
2023-01-01T11:29:09.614Z,-66
2023-01-01T11:34:10.756Z,-66
2023-01-01T11:39:11.918Z,-66
2023-01-01T11:44:13.099Z,-66
2023-01-01T11:49:14.410Z,-66
2023-01-01T11:54:15.646Z,-67
2023-01-01T11:59:17.107Z,-68
2023-01-01T12:04:18.294Z,-67
2023-01-01T12:09:19.448Z,-66
2023-01-01T12:14:20.679Z,-67
2023-01-01T12:19:22.079Z,-67
2023-01-01T12:24:23.401Z,-67
2023-01-01T12:29:24.567Z,-67
2023-01-01T12:34:25.876Z,-64
2023-01-01T12:39:27.128Z,-63
2023-01-01T12:44:28.297Z,-63
2023-01-01T12:49:29.506Z,-64
2023-01-01T12:54:30.739Z,-64
2023-01-01T12:59:31.991Z,-64
2023-01-01T13:04:33.157Z,-64
2023-01-01T13:09:34.348Z,-64
2023-01-01T13:14:35.623Z,-64
2023-01-01T13:19:40.839Z,-64
2023-01-01T13:24:42.010Z,-65
2023-01-01T13:29:43.462Z,-64
2023-01-01T13:34:44.646Z,-63
2023-01-01T13:39:45.801Z,-64
2023-01-01T13:44:47.021Z,-64
2023-01-01T13:49:48.200Z,-64
2023-01-01T13:54:49.394Z,-64
2023-01-01T13:59:52.457Z,-64
2023-01-01T14:04:53.752Z,-64
2023-01-01T14:09:54.901Z,-64
2023-01-01T14:14:56.086Z,-64
2023-01-01T14:19:57.278Z,-63
2023-01-01T14:24:59.377Z,-64
2023-01-01T14:30:02.835Z,-63
2023-01-01T14:35:04.057Z,-64
2023-01-01T14:40:05.285Z,-64
2023-01-01T14:45:06.524Z,-64
2023-01-01T14:50:07.744Z,-64
2023-01-01T14:55:08.907Z,-64
2023-01-01T15:00:10.613Z,-64
2023-01-01T15:05:11.761Z,-64
2023-01-01T15:10:13.185Z,-64
2023-01-01T15:15:14.333Z,-64
2023-01-01T15:20:15.523Z,-66
2023-01-01T15:25:16.733Z,-67
2023-01-01T15:30:17.901Z,-67
2023-01-01T15:35:19.083Z,-67
2023-01-01T15:40:20.312Z,-69
2023-01-01T15:45:21.965Z,-67
2023-01-01T15:50:23.173Z,-67
2023-01-01T15:55:24.338Z,-64
2023-01-01T16:00:25.597Z,-64
2023-01-01T16:05:26.762Z,-65
2023-01-01T16:10:27.970Z,-65
2023-01-01T16:15:29.136Z,-68
2023-01-01T16:20:30.383Z,-65
2023-01-01T16:25:31.583Z,-65
2023-01-01T16:30:33.110Z,-65
2023-01-01T16:35:34.335Z,-66
2023-01-01T16:40:37.832Z,-65
2023-01-01T16:45:39.145Z,-65
2023-01-01T16:50:40.383Z,-65
2023-01-01T16:55:41.595Z,-65
2023-01-01T17:00:42.799Z,-68
2023-01-01T17:05:44.781Z,-65
2023-01-01T17:10:46.599Z,-65
2023-01-01T17:15:47.831Z,-65
2023-01-01T17:20:48.984Z,-65
2023-01-01T17:25:50.145Z,-65
2023-01-01T17:30:51.330Z,-65
2023-01-01T17:35:52.556Z,-65
2023-01-01T17:40:53.732Z,-65
2023-01-01T17:45:55.012Z,-65
2023-01-01T17:50:56.244Z,-66
2023-01-01T17:55:57.415Z,-65
2023-01-01T18:00:58.570Z,-65
2023-01-01T18:05:59.742Z,-65
2023-01-01T18:11:00.932Z,-65
2023-01-01T18:16:02.305Z,-65
2023-01-01T18:21:03.614Z,-64
2023-01-01T18:26:04.773Z,-65
2023-01-01T18:31:06.045Z,-64
2023-01-01T18:36:07.229Z,-65
2023-01-01T18:41:08.357Z,-65
2023-01-01T18:46:09.897Z,-64
2023-01-01T18:51:11.164Z,-65
2023-01-01T18:56:12.454Z,-65
2023-01-01T19:01:14.396Z,-64
2023-01-01T19:06:15.689Z,-65
2023-01-01T19:11:16.846Z,-65
2023-01-01T19:16:23.810Z,-65
2023-01-01T19:21:25.415Z,-65
2023-01-01T19:26:26.632Z,-65
2023-01-01T19:31:27.823Z,-70
2023-01-01T19:36:29.105Z,-66
2023-01-01T19:41:30.273Z,-65
2023-01-01T19:46:31.511Z,-64
2023-01-01T19:51:32.724Z,-65
2023-01-01T19:56:33.925Z,-64
2023-01-01T20:01:35.250Z,-65
2023-01-01T20:06:37.764Z,-65
2023-01-01T20:11:38.986Z,-64
2023-01-01T20:16:40.517Z,-64
2023-01-01T20:22:00.492Z,-64
2023-01-01T20:27:01.666Z,-66
2023-01-01T20:32:02.909Z,-64
2023-01-01T20:37:22.795Z,-64
2023-01-01T20:42:24.179Z,-64
2023-01-01T20:47:25.377Z,-64
2023-01-01T20:52:26.608Z,-64
2023-01-01T20:57:27.816Z,-64
2023-01-01T21:02:29.947Z,-64
2023-01-01T21:07:31.320Z,-64
2023-01-01T21:12:32.463Z,-64
2023-01-01T21:17:33.727Z,-65
2023-01-01T21:22:34.904Z,-64
2023-01-01T21:27:36.166Z,-65
2023-01-01T21:32:38.129Z,-64
2023-01-01T21:37:49.577Z,-64
2023-01-01T21:42:50.749Z,-64
2023-01-01T21:47:51.991Z,-64
2023-01-01T21:52:53.225Z,-64
2023-01-01T21:58:20.953Z,-64
2023-01-01T22:03:22.422Z,-65
2023-01-01T22:08:24.131Z,-64
2023-01-01T22:13:25.357Z,-64
2023-01-01T22:18:26.956Z,-64
2023-01-01T22:23:28.158Z,-65
2023-01-01T22:28:29.339Z,-64
2023-01-01T22:33:30.670Z,-63
2023-01-01T22:38:31.847Z,-64
2023-01-01T22:43:33.076Z,-64
2023-01-01T22:48:34.294Z,-64
2023-01-01T22:53:35.491Z,-64
2023-01-01T22:58:36.724Z,-64
2023-01-01T23:03:38.002Z,-64
2023-01-01T23:08:39.244Z,-64
2023-01-01T23:13:59.250Z,-64
2023-01-01T23:19:00.444Z,-64
2023-01-01T23:24:01.653Z,-63
2023-01-01T23:29:02.883Z,-64
2023-01-01T23:34:04.031Z,-64
2023-01-01T23:39:05.202Z,-64
2023-01-01T23:44:06.412Z,-63
2023-01-01T23:49:07.697Z,-64
2023-01-01T23:54:08.927Z,-64
2023-01-01T23:59:11.877Z,-64
